createdAt,value
2022-08-22T00:00:28.053Z,21.07
2022-08-22T00:03:00.571Z,25.36
2022-08-22T00:03:01.689Z,23.04
2022-08-22T00:03:17.423Z,21.04
2022-08-22T00:06:03.515Z,20.94
2022-08-22T00:08:43.699Z,21.00
2022-08-22T00:11:33.153Z,21.01
2022-08-22T00:14:17.780Z,20.98
2022-08-22T00:16:51.511Z,20.76
2022-08-22T00:19:53.588Z,20.46
2022-08-22T00:22:34.592Z,20.43
2022-08-22T00:25:26.904Z,20.48
2022-08-22T00:28:05.201Z,20.32
2022-08-22T00:30:41.370Z,20.23
2022-08-22T00:33:18.668Z,20.04
2022-08-22T00:35:50.437Z,19.93
2022-08-22T00:38:30.998Z,19.92
2022-08-22T00:41:10.743Z,20.03
2022-08-22T00:44:02.613Z,20.13
2022-08-22T00:47:06.273Z,20.13
2022-08-22T00:50:00.092Z,20.15
2022-08-22T00:52:55.368Z,20.16
2022-08-22T00:55:43.999Z,20.23
2022-08-22T00:58:17.357Z,20.26
2022-08-22T01:00:51.866Z,20.30
2022-08-22T01:03:42.488Z,20.37
2022-08-22T01:06:28.589Z,20.45
2022-08-22T01:09:16.274Z,20.49
2022-08-22T01:11:58.125Z,20.52
2022-08-22T01:14:37.863Z,20.48
2022-08-22T01:17:41.809Z,20.45
2022-08-22T01:20:08.135Z,20.39
2022-08-22T01:22:54.051Z,20.43
2022-08-22T01:25:48.559Z,20.45
2022-08-22T01:28:34.363Z,20.46
2022-08-22T01:31:38.419Z,20.48
2022-08-22T01:34:26.579Z,20.52
2022-08-22T01:37:08.250Z,20.56
2022-08-22T01:40:13.033Z,20.62
2022-08-22T01:42:53.617Z,20.61
2022-08-22T01:45:50.178Z,20.54
2022-08-22T01:48:41.999Z,20.37
2022-08-22T01:51:28.047Z,20.31
2022-08-22T01:54:09.359Z,20.18
2022-08-22T01:56:42.115Z,20.13
2022-08-22T01:59:14.896Z,20.12
2022-08-22T02:01:49.997Z,20.08
2022-08-22T02:04:28.729Z,20.09
2022-08-22T02:07:07.116Z,20.06
2022-08-22T02:10:11.078Z,20.00
2022-08-22T02:12:46.062Z,19.83
2022-08-22T02:15:23.964Z,19.61
2022-08-22T02:18:04.953Z,19.70
2022-08-22T02:20:56.749Z,19.74
2022-08-22T02:23:48.034Z,19.76
2022-08-22T02:26:19.473Z,19.56
2022-08-22T02:29:06.699Z,19.44
2022-08-22T02:31:37.003Z,19.48
2022-08-22T02:34:28.518Z,19.45
2022-08-22T02:37:10.441Z,19.28
2022-08-22T02:39:55.148Z,19.14
2022-08-22T02:42:34.283Z,19.11
2022-08-22T02:45:15.655Z,19.09
2022-08-22T02:47:55.839Z,19.03
2022-08-22T02:50:33.425Z,19.01
2022-08-22T02:53:09.234Z,18.92
2022-08-22T02:56:01.265Z,18.92
2022-08-22T02:58:42.734Z,18.90
2022-08-22T03:01:15.218Z,18.94
2022-08-22T03:03:46.129Z,18.98
2022-08-22T03:06:39.419Z,19.01
2022-08-22T03:09:28.875Z,19.05
2022-08-22T03:12:09.293Z,19.08
2022-08-22T03:14:44.562Z,19.05
2022-08-22T03:17:22.796Z,18.97
2022-08-22T03:20:07.509Z,18.92
2022-08-22T03:22:59.979Z,18.91
2022-08-22T03:25:39.393Z,18.84
2022-08-22T03:28:18.509Z,18.86
2022-08-22T03:31:00.668Z,18.85
2022-08-22T03:33:31.098Z,18.89
2022-08-22T03:36:03.473Z,18.86
2022-08-22T03:38:32.684Z,18.85
2022-08-22T03:41:11.351Z,18.87
2022-08-22T03:43:56.609Z,18.80
2022-08-22T03:47:07.040Z,18.68
2022-08-22T03:50:13.674Z,18.49
2022-08-22T03:53:15.543Z,18.31
2022-08-22T03:56:04.073Z,18.08
2022-08-22T03:58:47.958Z,18.11
2022-08-22T04:01:14.337Z,18.00
2022-08-22T04:04:05.060Z,17.90
2022-08-22T04:07:05.466Z,17.94
2022-08-22T04:10:17.990Z,18.08
2022-08-22T04:13:07.803Z,18.03
2022-08-22T04:15:59.074Z,18.06
2022-08-22T04:18:59.661Z,18.07
2022-08-22T04:21:42.993Z,18.07
2022-08-22T04:24:37.246Z,17.95
2022-08-22T04:27:28.940Z,17.89
2022-08-22T04:30:16.563Z,17.89
2022-08-22T04:32:47.453Z,17.93
2022-08-22T04:35:46.149Z,17.95
2022-08-22T04:38:21.773Z,17.91
2022-08-22T04:40:54.241Z,17.78
2022-08-22T04:43:32.081Z,17.72
2022-08-22T04:46:22.791Z,17.71
2022-08-22T04:49:16.948Z,17.63
2022-08-22T04:51:56.260Z,17.45
2022-08-22T04:54:53.431Z,17.39
2022-08-22T04:57:33.974Z,17.36
2022-08-22T05:00:06.381Z,17.38
2022-08-22T05:02:37.669Z,17.13
2022-08-22T05:05:18.561Z,17.11
2022-08-22T05:08:01.296Z,17.04
2022-08-22T05:10:38.247Z,17.03
2022-08-22T05:13:12.872Z,16.97
2022-08-22T05:15:45.957Z,16.92
2022-08-22T05:18:19.913Z,16.88
2022-08-22T05:20:50.235Z,16.93
2022-08-22T05:23:23.426Z,16.99
2022-08-22T05:25:53.055Z,17.00
2022-08-22T05:28:44.210Z,17.15
2022-08-22T05:31:24.053Z,17.20
2022-08-22T05:33:56.772Z,17.24
2022-08-22T05:36:27.777Z,17.19
2022-08-22T05:39:01.744Z,17.25
2022-08-22T05:41:35.595Z,17.36
2022-08-22T05:44:02.873Z,17.52
2022-08-22T05:46:41.509Z,17.58
2022-08-22T05:49:29.173Z,17.58
2022-08-22T05:52:09.200Z,17.78
2022-08-22T05:54:50.660Z,17.84
2022-08-22T05:57:48.077Z,17.90
2022-08-22T06:00:22.085Z,17.88
2022-08-22T06:03:08.688Z,17.81
2022-08-22T06:05:39.897Z,17.93
2022-08-22T06:08:19.893Z,17.99
2022-08-22T06:10:50.843Z,18.00
2022-08-22T06:13:32.477Z,18.03
2022-08-22T06:16:17.105Z,18.15
2022-08-22T06:18:44.598Z,18.24
2022-08-22T06:21:22.447Z,18.40
2022-08-22T06:23:56.643Z,18.55
2022-08-22T06:26:25.522Z,18.60
2022-08-22T06:28:56.495Z,18.60
2022-08-22T06:31:48.205Z,18.64
2022-08-22T06:34:23.559Z,18.64
2022-08-22T06:36:51.682Z,18.72
2022-08-22T06:39:26.417Z,18.78
2022-08-22T06:42:24.193Z,18.97
2022-08-22T06:44:53.357Z,19.04
2022-08-22T06:47:26.425Z,19.24
2022-08-22T06:49:59.476Z,19.49
2022-08-22T06:52:28.708Z,19.78
2022-08-22T06:55:02.709Z,19.90
2022-08-22T06:57:37.109Z,20.13
2022-08-22T07:00:11.733Z,20.18
2022-08-22T07:02:42.455Z,20.32
2022-08-22T07:05:22.911Z,20.42
2022-08-22T07:07:50.354Z,20.62
2022-08-22T07:10:18.029Z,20.72
2022-08-22T07:12:48.104Z,20.78
2022-08-22T07:15:37.042Z,20.79
2022-08-22T07:18:07.815Z,20.98
2022-08-22T07:20:38.862Z,21.15
2022-08-22T07:23:10.506Z,21.44
2022-08-22T07:25:54.138Z,21.62
2022-08-22T07:28:59.237Z,21.94
2022-08-22T07:31:55.513Z,22.22
2022-08-22T07:34:37.980Z,22.36
2022-08-22T07:37:23.336Z,22.48
2022-08-22T07:39:56.088Z,22.54
2022-08-22T07:42:31.183Z,22.80
2022-08-22T07:45:15.318Z,23.24
2022-08-22T07:47:52.361Z,23.48
2022-08-22T07:50:24.874Z,24.03
2022-08-22T07:52:53.308Z,24.62
2022-08-22T07:55:23.281Z,25.25
2022-08-22T07:57:56.636Z,25.72
2022-08-22T08:00:23.948Z,25.94
2022-08-22T08:02:58.688Z,26.03
2022-08-22T08:05:28.642Z,25.66
2022-08-22T08:07:56.322Z,25.70
2022-08-22T08:10:27.320Z,25.54
2022-08-22T08:13:02.342Z,25.54
2022-08-22T08:15:32.175Z,25.34
2022-08-22T08:18:04.422Z,25.39
2022-08-22T08:20:34.394Z,25.81
2022-08-22T08:23:02.173Z,25.80
2022-08-22T08:25:31.553Z,25.90
2022-08-22T08:28:18.429Z,25.83
2022-08-22T08:30:55.857Z,26.02
2022-08-22T08:33:26.935Z,26.01
2022-08-22T08:36:20.508Z,25.75
2022-08-22T08:39:14.266Z,25.53
2022-08-22T08:42:21.893Z,25.62
2022-08-22T08:45:09.863Z,25.64
2022-08-22T08:48:14.018Z,25.73
2022-08-22T08:50:50.242Z,25.95
2022-08-22T08:53:38.116Z,26.13
2022-08-22T08:56:19.735Z,26.11
2022-08-22T08:59:01.102Z,26.15
2022-08-22T09:01:42.773Z,26.15
2022-08-22T09:04:14.968Z,26.20
2022-08-22T09:07:16.428Z,26.42
2022-08-22T09:10:27.348Z,26.57
2022-08-22T09:13:17.618Z,27.23
2022-08-22T09:16:11.858Z,27.75
2022-08-22T09:19:18.382Z,27.66
2022-08-22T09:21:58.557Z,27.57
2022-08-22T09:24:57.486Z,27.96
2022-08-22T09:27:30.996Z,28.04
2022-08-22T09:30:18.075Z,29.03
2022-08-22T09:33:04.315Z,29.63
2022-08-22T09:35:52.668Z,30.40
2022-08-22T09:38:38.505Z,30.86
2022-08-22T09:41:21.357Z,31.52
2022-08-22T09:44:14.325Z,31.65
2022-08-22T09:46:57.143Z,31.92
2022-08-22T09:49:51.181Z,31.98
2022-08-22T09:52:35.717Z,32.37
2022-08-22T09:55:16.040Z,32.43
2022-08-22T09:58:31.247Z,32.52
2022-08-22T10:01:10.539Z,32.41
2022-08-22T10:03:45.992Z,31.50
2022-08-22T10:06:23.241Z,30.97
2022-08-22T10:09:32.638Z,30.48
2022-08-22T10:12:02.226Z,29.85
2022-08-22T10:14:56.157Z,29.17
2022-08-22T10:17:33.348Z,28.90
2022-08-22T10:20:21.169Z,29.02
2022-08-22T10:23:04.574Z,28.93
2022-08-22T10:25:32.265Z,29.23
2022-08-22T10:28:10.370Z,29.44
2022-08-22T10:31:04.099Z,29.91
2022-08-22T10:33:38.037Z,30.15
2022-08-22T10:36:08.054Z,30.48
2022-08-22T10:38:52.004Z,30.26
2022-08-22T10:41:31.513Z,30.33
2022-08-22T10:44:04.405Z,30.46
2022-08-22T10:46:42.247Z,30.27
2022-08-22T10:49:33.104Z,30.28
2022-08-22T10:52:15.649Z,29.99
2022-08-22T10:54:52.144Z,30.05
2022-08-22T10:57:44.053Z,30.05
2022-08-22T11:00:46.482Z,29.92
2022-08-22T11:03:41.723Z,29.26
2022-08-22T11:06:37.999Z,29.72
2022-08-22T11:09:23.634Z,29.72
2022-08-22T11:12:12.967Z,30.03
2022-08-22T11:15:03.081Z,30.49
2022-08-22T11:17:58.744Z,30.64
2022-08-22T11:20:36.713Z,30.78
2022-08-22T11:23:29.721Z,30.92
2022-08-22T11:26:15.253Z,30.88
2022-08-22T11:29:24.211Z,30.99
2022-08-22T11:32:18.947Z,30.90
2022-08-22T11:34:45.435Z,30.97
2022-08-22T11:37:42.200Z,30.80
2022-08-22T11:40:31.243Z,30.68
2022-08-22T11:43:17.962Z,30.51
2022-08-22T11:45:50.095Z,30.46
2022-08-22T11:48:48.700Z,30.67
2022-08-22T11:51:44.519Z,30.72
2022-08-22T11:54:21.764Z,30.70
2022-08-22T11:57:11.532Z,29.67
2022-08-22T12:00:09.971Z,29.23
2022-08-22T12:02:47.371Z,29.17
2022-08-22T12:05:26.334Z,28.98
2022-08-22T12:08:00.720Z,28.97
2022-08-22T12:10:33.743Z,28.97
2022-08-22T12:13:13.098Z,28.95
2022-08-22T12:16:21.011Z,29.01
2022-08-22T12:19:12.196Z,29.19
2022-08-22T12:22:08.857Z,29.43
2022-08-22T12:25:09.063Z,29.52
2022-08-22T12:28:28.087Z,29.55
2022-08-22T12:31:10.477Z,29.60
2022-08-22T12:33:48.604Z,29.35
2022-08-22T12:36:43.379Z,29.32
2022-08-22T12:39:41.487Z,29.57
2022-08-22T12:42:08.066Z,29.76
2022-08-22T12:45:08.507Z,29.92
2022-08-22T12:47:37.873Z,30.10
2022-08-22T12:50:13.550Z,30.29
2022-08-22T12:52:54.510Z,30.38
2022-08-22T12:55:37.251Z,30.30
2022-08-22T12:58:04.784Z,30.32
2022-08-22T13:00:35.274Z,30.40
2022-08-22T13:03:09.574Z,30.44
2022-08-22T13:05:41.042Z,30.58
2022-08-22T13:08:21.690Z,30.64
2022-08-22T13:10:56.261Z,30.26
2022-08-22T13:13:31.693Z,30.10
2022-08-22T13:16:13.060Z,30.10
2022-08-22T13:18:53.432Z,30.19
2022-08-22T13:21:26.692Z,30.24
2022-08-22T13:24:04.687Z,30.09
2022-08-22T13:26:34.779Z,30.23
2022-08-22T13:29:25.651Z,30.20
2022-08-22T13:31:59.123Z,30.14
2022-08-22T13:34:44.912Z,30.18
2022-08-22T13:37:17.916Z,30.10
2022-08-22T13:39:54.962Z,30.20
2022-08-22T13:42:29.899Z,30.28
2022-08-22T13:44:59.611Z,30.24
2022-08-22T13:47:31.576Z,30.22
2022-08-22T13:50:19.019Z,30.22
2022-08-22T13:53:27.045Z,30.32
2022-08-22T13:56:15.760Z,30.37
2022-08-22T13:58:50.036Z,30.46
2022-08-22T14:01:37.683Z,30.56
2022-08-22T14:04:28.277Z,30.46
2022-08-22T14:07:04.685Z,30.42
2022-08-22T14:09:39.362Z,30.52
2022-08-22T14:12:26.748Z,30.59
2022-08-22T14:15:01.851Z,30.61
2022-08-22T14:17:33.688Z,30.51
2022-08-22T14:20:12.189Z,30.37
2022-08-22T14:22:41.459Z,30.23
2022-08-22T14:25:21.549Z,30.29
2022-08-22T14:28:03.085Z,30.28
2022-08-22T14:30:39.257Z,30.22
2022-08-22T14:33:25.001Z,30.32
2022-08-22T14:35:56.940Z,30.33
2022-08-22T14:38:32.588Z,30.32
2022-08-22T14:41:05.206Z,30.37
2022-08-22T14:43:31.927Z,30.44
2022-08-22T14:46:06.579Z,30.52
2022-08-22T14:49:05.436Z,30.60
2022-08-22T14:51:33.634Z,30.57
2022-08-22T14:54:21.579Z,30.64
2022-08-22T14:56:50.367Z,30.65
2022-08-22T14:59:32.207Z,30.49
2022-08-22T15:02:04.675Z,30.32
2022-08-22T15:04:38.313Z,30.39
2022-08-22T15:07:06.451Z,30.35
2022-08-22T15:09:40.490Z,30.38
2022-08-22T15:12:23.401Z,30.35
2022-08-22T15:14:54.627Z,30.37
2022-08-22T15:17:45.697Z,30.45
2022-08-22T15:20:36.285Z,30.40
2022-08-22T15:23:14.723Z,30.41
2022-08-22T15:25:46.979Z,30.44
2022-08-22T15:28:14.113Z,30.55
2022-08-22T15:31:05.999Z,30.43
2022-08-22T15:33:43.265Z,30.55
2022-08-22T15:36:24.108Z,30.56
2022-08-22T15:39:21.147Z,30.56
2022-08-22T15:41:48.678Z,30.64
2022-08-22T15:44:32.967Z,30.60
2022-08-22T15:47:28.525Z,30.63
2022-08-22T15:50:05.527Z,30.64
2022-08-22T15:52:57.025Z,30.60
2022-08-22T15:55:31.615Z,30.49
2022-08-22T15:58:20.675Z,30.47
2022-08-22T16:01:20.120Z,30.45
2022-08-22T16:04:02.887Z,30.51
2022-08-22T16:06:49.634Z,30.72
2022-08-22T16:09:43.438Z,30.85
2022-08-22T16:12:25.968Z,31.05
2022-08-22T16:14:53.579Z,31.36
2022-08-22T16:17:44.602Z,31.54
2022-08-22T16:20:15.856Z,31.61
2022-08-22T16:22:58.544Z,31.90
2022-08-22T16:25:46.575Z,32.06
2022-08-22T16:28:31.814Z,32.01
2022-08-22T16:31:27.277Z,32.21
2022-08-22T16:33:57.120Z,32.26
2022-08-22T16:37:11.530Z,32.45
2022-08-22T16:39:44.533Z,32.76
2022-08-22T16:42:23.201Z,32.85
2022-08-22T16:45:15.043Z,32.92
2022-08-22T16:47:57.905Z,33.02
2022-08-22T16:50:31.315Z,33.05
2022-08-22T16:53:02.836Z,32.58
2022-08-22T16:55:29.442Z,32.19
2022-08-22T16:58:09.814Z,31.91
2022-08-22T17:00:36.376Z,31.36
2022-08-22T17:03:10.538Z,31.15
2022-08-22T17:05:58.215Z,30.83
2022-08-22T17:08:33.907Z,30.66
2022-08-22T17:11:13.983Z,30.57
2022-08-22T17:13:59.220Z,30.37
2022-08-22T17:16:38.179Z,30.16
2022-08-22T17:19:31.105Z,30.09
2022-08-22T17:22:04.602Z,29.91
2022-08-22T17:25:09.857Z,29.89
2022-08-22T17:27:42.592Z,29.75
2022-08-22T17:30:41.227Z,29.63
2022-08-22T17:33:51.223Z,29.52
2022-08-22T17:36:32.221Z,29.44
2022-08-22T17:39:34.687Z,29.42
2022-08-22T17:42:21.145Z,29.30
2022-08-22T17:45:03.386Z,29.22
2022-08-22T17:47:46.829Z,29.18
2022-08-22T17:50:16.424Z,29.07
2022-08-22T17:52:50.411Z,29.05
2022-08-22T17:55:19.210Z,29.02
2022-08-22T17:57:57.778Z,29.02
2022-08-22T18:00:30.643Z,28.97
2022-08-22T18:03:06.829Z,28.86
2022-08-22T18:05:39.958Z,28.84
2022-08-22T18:09:13.265Z,28.83
2022-08-22T18:11:29.314Z,28.68
2022-08-22T18:14:06.688Z,28.54
2022-08-22T18:16:42.006Z,28.45
2022-08-22T18:19:23.649Z,28.39
2022-08-22T18:21:58.748Z,28.33
2022-08-22T18:24:50.187Z,28.29
2022-08-22T18:27:34.933Z,28.23
2022-08-22T18:30:13.941Z,28.20
2022-08-22T18:32:46.152Z,28.17
2022-08-22T18:35:22.614Z,28.16
2022-08-22T18:38:19.916Z,28.13
2022-08-22T18:40:54.484Z,28.07
2022-08-22T18:43:39.975Z,27.94
2022-08-22T18:46:37.348Z,27.73
2022-08-22T18:49:23.692Z,27.54
2022-08-22T18:52:05.435Z,27.49
2022-08-22T18:54:50.588Z,27.42
2022-08-22T18:57:54.211Z,27.26
2022-08-22T19:00:25.521Z,27.05
2022-08-22T19:03:17.978Z,27.06
2022-08-22T19:06:02.529Z,27.03
2022-08-22T19:08:38.583Z,26.98
2022-08-22T19:11:36.402Z,26.90
2022-08-22T19:14:24.990Z,26.84
2022-08-22T19:17:38.243Z,26.82
2022-08-22T19:20:44.004Z,26.84
2022-08-22T19:23:41.172Z,26.78
2022-08-22T19:26:28.627Z,26.80
2022-08-22T19:29:02.299Z,26.75
2022-08-22T19:31:41.756Z,26.71
2022-08-22T19:34:19.664Z,26.66
2022-08-22T19:37:33.752Z,26.65
2022-08-22T19:40:09.136Z,26.59
2022-08-22T19:42:38.951Z,26.49
2022-08-22T19:45:19.686Z,26.40
2022-08-22T19:47:57.111Z,26.29
2022-08-22T19:50:31.743Z,26.23
2022-08-22T19:53:19.446Z,26.26
2022-08-22T19:56:05.627Z,26.14
2022-08-22T19:58:38.511Z,26.14
2022-08-22T20:01:44.039Z,26.09
2022-08-22T20:04:46.302Z,26.08
2022-08-22T20:07:34.242Z,26.00
2022-08-22T20:10:25.677Z,25.96
2022-08-22T20:13:11.909Z,25.92
2022-08-22T20:16:02.522Z,25.89
2022-08-22T20:19:07.668Z,25.87
2022-08-22T20:21:55.295Z,25.76
2022-08-22T20:24:34.383Z,25.78
2022-08-22T20:27:14.568Z,25.72
2022-08-22T20:29:51.249Z,25.68
2022-08-22T20:32:20.223Z,25.58
2022-08-22T20:34:50.628Z,25.55
2022-08-22T20:37:35.988Z,25.49
2022-08-22T20:40:56.446Z,25.43
2022-08-22T20:43:34.439Z,25.49
2022-08-22T20:46:32.063Z,25.41
2022-08-22T20:49:01.070Z,25.43
2022-08-22T20:51:30.684Z,25.41
2022-08-22T20:53:59.109Z,25.36
2022-08-22T20:56:54.436Z,25.35
2022-08-22T20:59:29.525Z,25.36
2022-08-22T21:02:15.908Z,25.34
2022-08-22T21:05:05.597Z,25.29
2022-08-22T21:07:37.425Z,25.28
2022-08-22T21:10:46.644Z,25.24
2022-08-22T21:13:24.623Z,25.18
2022-08-22T21:16:31.927Z,25.11
2022-08-22T21:19:01.574Z,25.07
2022-08-22T21:21:34.752Z,25.07
2022-08-22T21:24:06.715Z,25.01
2022-08-22T21:26:39.073Z,24.95
2022-08-22T21:29:10.324Z,24.89
2022-08-22T21:31:45.847Z,24.90
2022-08-22T21:34:20.881Z,24.82
2022-08-22T21:36:50.872Z,24.75
2022-08-22T21:39:21.969Z,24.62
2022-08-22T21:42:07.765Z,24.51
2022-08-22T21:44:37.578Z,24.47
2022-08-22T21:47:30.773Z,24.42
2022-08-22T21:50:18.809Z,24.34
2022-08-22T21:53:05.708Z,24.16
2022-08-22T21:55:36.829Z,24.05
2022-08-22T21:58:31.009Z,24.03
2022-08-22T22:01:24.773Z,23.95
2022-08-22T22:03:51.539Z,23.78
2022-08-22T22:06:18.059Z,23.60
2022-08-22T22:08:44.494Z,23.50
2022-08-22T22:11:14.332Z,23.55
2022-08-22T22:13:41.411Z,23.49
2022-08-22T22:16:11.978Z,23.48
2022-08-22T22:18:39.319Z,23.47
2022-08-22T22:21:05.872Z,23.46
2022-08-22T22:23:32.451Z,23.45
2022-08-22T22:26:02.506Z,23.47
2022-08-22T22:28:32.767Z,23.45
2022-08-22T22:30:59.458Z,23.40
2022-08-22T22:33:29.390Z,23.41
2022-08-22T22:35:58.832Z,23.44
2022-08-22T22:38:25.588Z,23.47
2022-08-22T22:40:52.678Z,23.49
2022-08-22T22:43:19.608Z,23.49
2022-08-22T22:45:46.201Z,23.45
2022-08-22T22:48:17.387Z,23.43
2022-08-22T22:50:52.137Z,23.40
2022-08-22T22:53:19.881Z,23.40
2022-08-22T22:55:59.565Z,23.37
2022-08-22T22:58:27.411Z,23.30
2022-08-22T23:00:54.079Z,23.18
2022-08-22T23:03:20.909Z,23.16
2022-08-22T23:05:47.369Z,23.16
2022-08-22T23:08:13.783Z,23.21
2022-08-22T23:10:40.219Z,23.28
2022-08-22T23:13:06.671Z,23.31
2022-08-22T23:15:33.119Z,23.35
2022-08-22T23:17:59.611Z,23.36
2022-08-22T23:20:26.135Z,23.35
2022-08-22T23:22:52.616Z,23.33
2022-08-22T23:25:19.039Z,23.28
2022-08-22T23:27:52.181Z,23.26
2022-08-22T23:30:19.406Z,23.09
2022-08-22T23:32:45.816Z,22.97
2022-08-22T23:35:12.232Z,22.96
2022-08-22T23:37:38.709Z,23.02
2022-08-22T23:40:08.144Z,23.02
2022-08-22T23:42:35.028Z,23.00
2022-08-22T23:45:01.508Z,23.00
2022-08-22T23:47:27.923Z,22.95
2022-08-22T23:49:54.331Z,22.92
2022-08-22T23:52:20.890Z,22.92
2022-08-22T23:54:47.727Z,22.91
2022-08-22T23:57:21.054Z,22.89
2022-08-22T23:59:57.798Z,22.83
